sensor_id;sensor_type;location;lat;lon;timestamp;P1;durP1;ratioP1;P2;durP2;ratioP2
14994;SDS011;7593;49.006;8.372;2022-07-05T00:00:55;2.50;;;1.45;;
14994;SDS011;7593;49.006;8.372;2022-07-05T00:03:22;1.90;;;1.50;;
14994;SDS011;7593;49.006;8.372;2022-07-05T00:05:50;6.47;;;1.80;;
14994;SDS011;7593;49.006;8.372;2022-07-05T00:08:17;2.80;;;1.73;;
14994;SDS011;7593;49.006;8.372;2022-07-05T00:10:44;4.47;;;2.30;;
14994;SDS011;7593;49.006;8.372;2022-07-05T00:13:11;2.85;;;1.58;;
14994;SDS011;7593;49.006;8.372;2022-07-05T00:15:39;1.77;;;1.40;;
14994;SDS011;7593;49.006;8.372;2022-07-05T00:18:06;1.85;;;1.35;;
14994;SDS011;7593;49.006;8.372;2022-07-05T00:20:33;3.63;;;1.70;;
14994;SDS011;7593;49.006;8.372;2022-07-05T00:23:00;3.30;;;1.58;;
14994;SDS011;7593;49.006;8.372;2022-07-05T00:25:27;4.20;;;1.73;;
14994;SDS011;7593;49.006;8.372;2022-07-05T00:27:54;5.45;;;1.80;;
14994;SDS011;7593;49.006;8.372;2022-07-05T00:30:20;2.75;;;1.80;;
14994;SDS011;7593;49.006;8.372;2022-07-05T00:32:48;4.03;;;1.40;;
14994;SDS011;7593;49.006;8.372;2022-07-05T00:35:15;4.00;;;1.65;;
14994;SDS011;7593;49.006;8.372;2022-07-05T00:37:42;5.93;;;1.80;;
14994;SDS011;7593;49.006;8.372;2022-07-05T00:40:09;3.42;;;1.60;;
14994;SDS011;7593;49.006;8.372;2022-07-05T00:42:36;4.28;;;1.70;;
14994;SDS011;7593;49.006;8.372;2022-07-05T00:45:03;2.38;;;1.55;;
14994;SDS011;7593;49.006;8.372;2022-07-05T00:47:31;4.65;;;1.88;;
14994;SDS011;7593;49.006;8.372;2022-07-05T00:49:59;3.85;;;1.50;;
14994;SDS011;7593;49.006;8.372;2022-07-05T00:52:26;3.72;;;1.83;;
14994;SDS011;7593;49.006;8.372;2022-07-05T00:54:53;3.47;;;1.60;;
14994;SDS011;7593;49.006;8.372;2022-07-05T00:57:20;2.38;;;1.58;;
14994;SDS011;7593;49.006;8.372;2022-07-05T00:59:48;2.17;;;1.70;;
14994;SDS011;7593;49.006;8.372;2022-07-05T01:02:14;2.35;;;1.60;;
14994;SDS011;7593;49.006;8.372;2022-07-05T01:04:41;3.78;;;2.00;;
14994;SDS011;7593;49.006;8.372;2022-07-05T01:07:09;4.38;;;2.35;;
14994;SDS011;7593;49.006;8.372;2022-07-05T01:09:36;5.30;;;2.00;;
14994;SDS011;7593;49.006;8.372;2022-07-05T01:12:04;2.90;;;2.40;;
14994;SDS011;7593;49.006;8.372;2022-07-05T01:14:31;6.93;;;2.55;;
14994;SDS011;7593;49.006;8.372;2022-07-05T01:16:58;5.40;;;2.50;;
14994;SDS011;7593;49.006;8.372;2022-07-05T01:19:25;3.95;;;2.47;;
14994;SDS011;7593;49.006;8.372;2022-07-05T01:21:52;3.72;;;2.50;;
14994;SDS011;7593;49.006;8.372;2022-07-05T01:24:21;5.20;;;2.08;;
14994;SDS011;7593;49.006;8.372;2022-07-05T01:26:49;2.63;;;2.38;;
14994;SDS011;7593;49.006;8.372;2022-07-05T01:29:16;3.35;;;2.20;;
14994;SDS011;7593;49.006;8.372;2022-07-05T01:31:44;3.53;;;2.60;;
14994;SDS011;7593;49.006;8.372;2022-07-05T01:34:11;6.70;;;2.70;;
14994;SDS011;7593;49.006;8.372;2022-07-05T01:36:38;4.63;;;2.30;;
14994;SDS011;7593;49.006;8.372;2022-07-05T01:39:05;3.22;;;2.03;;
14994;SDS011;7593;49.006;8.372;2022-07-05T01:41:34;3.55;;;2.30;;
14994;SDS011;7593;49.006;8.372;2022-07-05T01:44:01;3.45;;;2.22;;
14994;SDS011;7593;49.006;8.372;2022-07-05T01:46:30;5.40;;;2.50;;
14994;SDS011;7593;49.006;8.372;2022-07-05T01:49:03;3.28;;;2.25;;
14994;SDS011;7593;49.006;8.372;2022-07-05T01:51:33;4.93;;;2.35;;
14994;SDS011;7593;49.006;8.372;2022-07-05T01:54:04;3.65;;;2.45;;
14994;SDS011;7593;49.006;8.372;2022-07-05T01:56:31;8.90;;;3.22;;
14994;SDS011;7593;49.006;8.372;2022-07-05T01:58:59;8.27;;;3.35;;
14994;SDS011;7593;49.006;8.372;2022-07-05T02:01:31;4.32;;;2.83;;
14994;SDS011;7593;49.006;8.372;2022-07-05T02:03:59;7.15;;;3.10;;
14994;SDS011;7593;49.006;8.372;2022-07-05T02:06:25;4.82;;;3.17;;
14994;SDS011;7593;49.006;8.372;2022-07-05T02:08:52;5.93;;;2.42;;
14994;SDS011;7593;49.006;8.372;2022-07-05T02:11:19;2.45;;;2.17;;
14994;SDS011;7593;49.006;8.372;2022-07-05T02:13:46;3.25;;;2.22;;
14994;SDS011;7593;49.006;8.372;2022-07-05T02:16:14;3.08;;;2.15;;
14994;SDS011;7593;49.006;8.372;2022-07-05T02:18:41;2.40;;;1.83;;
14994;SDS011;7593;49.006;8.372;2022-07-05T02:21:08;2.63;;;2.00;;
14994;SDS011;7593;49.006;8.372;2022-07-05T02:23:34;2.60;;;2.00;;
14994;SDS011;7593;49.006;8.372;2022-07-05T02:26:01;4.63;;;2.25;;
14994;SDS011;7593;49.006;8.372;2022-07-05T02:28:28;3.90;;;2.13;;
14994;SDS011;7593;49.006;8.372;2022-07-05T02:30:55;4.15;;;2.50;;
14994;SDS011;7593;49.006;8.372;2022-07-05T02:33:23;2.38;;;1.90;;
14994;SDS011;7593;49.006;8.372;2022-07-05T02:35:50;2.80;;;2.22;;
14994;SDS011;7593;49.006;8.372;2022-07-05T02:38:17;3.60;;;2.03;;
14994;SDS011;7593;49.006;8.372;2022-07-05T02:40:44;4.78;;;2.30;;
14994;SDS011;7593;49.006;8.372;2022-07-05T02:43:10;4.45;;;2.40;;
14994;SDS011;7593;49.006;8.372;2022-07-05T02:45:37;2.53;;;2.00;;
14994;SDS011;7593;49.006;8.372;2022-07-05T02:48:04;4.82;;;2.10;;
14994;SDS011;7593;49.006;8.372;2022-07-05T02:50:32;3.58;;;2.17;;
14994;SDS011;7593;49.006;8.372;2022-07-05T02:52:59;3.40;;;2.13;;
14994;SDS011;7593;49.006;8.372;2022-07-05T02:55:26;3.45;;;2.10;;
14994;SDS011;7593;49.006;8.372;2022-07-05T02:57:53;4.28;;;2.20;;
14994;SDS011;7593;49.006;8.372;2022-07-05T03:00:20;4.13;;;2.30;;
14994;SDS011;7593;49.006;8.372;2022-07-05T03:02:46;4.57;;;2.47;;
14994;SDS011;7593;49.006;8.372;2022-07-05T03:05:13;2.83;;;2.10;;
14994;SDS011;7593;49.006;8.372;2022-07-05T03:07:42;2.53;;;2.00;;
14994;SDS011;7593;49.006;8.372;2022-07-05T03:10:08;3.45;;;2.20;;
14994;SDS011;7593;49.006;8.372;2022-07-05T03:12:35;3.10;;;2.15;;
14994;SDS011;7593;49.006;8.372;2022-07-05T03:15:02;3.10;;;2.25;;
14994;SDS011;7593;49.006;8.372;2022-07-05T03:17:29;3.28;;;2.13;;
14994;SDS011;7593;49.006;8.372;2022-07-05T03:19:56;5.07;;;2.00;;
14994;SDS011;7593;49.006;8.372;2022-07-05T03:22:23;3.80;;;1.80;;
14994;SDS011;7593;49.006;8.372;2022-07-05T03:24:51;3.55;;;2.25;;
14994;SDS011;7593;49.006;8.372;2022-07-05T03:27:18;4.85;;;2.20;;
14994;SDS011;7593;49.006;8.372;2022-07-05T03:29:44;3.95;;;2.03;;
14994;SDS011;7593;49.006;8.372;2022-07-05T03:32:11;3.40;;;2.28;;
14994;SDS011;7593;49.006;8.372;2022-07-05T03:34:38;4.28;;;2.40;;
14994;SDS011;7593;49.006;8.372;2022-07-05T03:37:05;3.38;;;1.90;;
14994;SDS011;7593;49.006;8.372;2022-07-05T03:39:32;4.88;;;2.03;;
14994;SDS011;7593;49.006;8.372;2022-07-05T03:42:00;5.60;;;2.38;;
14994;SDS011;7593;49.006;8.372;2022-07-05T03:44:27;3.33;;;2.50;;
14994;SDS011;7593;49.006;8.372;2022-07-05T03:46:56;3.60;;;2.20;;
14994;SDS011;7593;49.006;8.372;2022-07-05T03:49:23;4.28;;;2.30;;
14994;SDS011;7593;49.006;8.372;2022-07-05T03:51:50;4.88;;;2.20;;
14994;SDS011;7593;49.006;8.372;2022-07-05T03:54:17;3.38;;;2.40;;
14994;SDS011;7593;49.006;8.372;2022-07-05T03:56:44;2.58;;;2.17;;
14994;SDS011;7593;49.006;8.372;2022-07-05T03:59:13;2.85;;;2.35;;
14994;SDS011;7593;49.006;8.372;2022-07-05T04:01:39;4.47;;;2.40;;
14994;SDS011;7593;49.006;8.372;2022-07-05T04:04:06;7.82;;;2.30;;
14994;SDS011;7593;49.006;8.372;2022-07-05T04:06:33;4.18;;;2.50;;
14994;SDS011;7593;49.006;8.372;2022-07-05T04:09:00;3.97;;;2.20;;
14994;SDS011;7593;49.006;8.372;2022-07-05T04:11:27;2.58;;;2.38;;
14994;SDS011;7593;49.006;8.372;2022-07-05T04:13:53;2.25;;;2.05;;
14994;SDS011;7593;49.006;8.372;2022-07-05T04:16:22;3.75;;;2.78;;
14994;SDS011;7593;49.006;8.372;2022-07-05T04:18:51;4.55;;;2.50;;
14994;SDS011;7593;49.006;8.372;2022-07-05T04:21:17;4.78;;;2.72;;
14994;SDS011;7593;49.006;8.372;2022-07-05T04:23:44;4.60;;;2.03;;
14994;SDS011;7593;49.006;8.372;2022-07-05T04:26:11;3.22;;;2.25;;
14994;SDS011;7593;49.006;8.372;2022-07-05T04:28:38;4.30;;;2.60;;
14994;SDS011;7593;49.006;8.372;2022-07-05T04:31:05;3.63;;;2.90;;
14994;SDS011;7593;49.006;8.372;2022-07-05T04:33:33;8.95;;;2.83;;
14994;SDS011;7593;49.006;8.372;2022-07-05T04:36:00;5.18;;;2.60;;
14994;SDS011;7593;49.006;8.372;2022-07-05T04:38:27;6.80;;;2.60;;
14994;SDS011;7593;49.006;8.372;2022-07-05T04:40:54;4.40;;;2.80;;
14994;SDS011;7593;49.006;8.372;2022-07-05T04:43:21;5.15;;;2.45;;
14994;SDS011;7593;49.006;8.372;2022-07-05T04:45:47;5.05;;;2.65;;
14994;SDS011;7593;49.006;8.372;2022-07-05T04:48:14;5.22;;;2.80;;
14994;SDS011;7593;49.006;8.372;2022-07-05T04:50:42;4.65;;;2.72;;
14994;SDS011;7593;49.006;8.372;2022-07-05T04:53:09;5.95;;;2.75;;
14994;SDS011;7593;49.006;8.372;2022-07-05T04:55:36;5.20;;;2.88;;
14994;SDS011;7593;49.006;8.372;2022-07-05T04:58:03;4.07;;;2.50;;
14994;SDS011;7593;49.006;8.372;2022-07-05T05:00:29;5.15;;;2.45;;
14994;SDS011;7593;49.006;8.372;2022-07-05T05:02:56;4.65;;;2.35;;
14994;SDS011;7593;49.006;8.372;2022-07-05T05:05:23;4.25;;;2.47;;
14994;SDS011;7593;49.006;8.372;2022-07-05T05:07:51;4.45;;;2.58;;
14994;SDS011;7593;49.006;8.372;2022-07-05T05:10:18;4.65;;;2.15;;
14994;SDS011;7593;49.006;8.372;2022-07-05T05:12:45;5.30;;;2.30;;
14994;SDS011;7593;49.006;8.372;2022-07-05T05:15:12;4.63;;;2.20;;
14994;SDS011;7593;49.006;8.372;2022-07-05T05:17:39;5.93;;;2.20;;
14994;SDS011;7593;49.006;8.372;2022-07-05T05:20:10;3.53;;;2.10;;
14994;SDS011;7593;49.006;8.372;2022-07-05T05:22:38;4.35;;;2.05;;
14994;SDS011;7593;49.006;8.372;2022-07-05T05:25:07;3.58;;;2.15;;
14994;SDS011;7593;49.006;8.372;2022-07-05T05:27:35;5.68;;;2.22;;
14994;SDS011;7593;49.006;8.372;2022-07-05T05:30:06;5.80;;;2.30;;
14994;SDS011;7593;49.006;8.372;2022-07-05T05:32:34;4.43;;;2.35;;
14994;SDS011;7593;49.006;8.372;2022-07-05T05:35:00;7.68;;;2.30;;
14994;SDS011;7593;49.006;8.372;2022-07-05T05:37:27;4.35;;;2.20;;
14994;SDS011;7593;49.006;8.372;2022-07-05T05:39:54;3.45;;;2.05;;
14994;SDS011;7593;49.006;8.372;2022-07-05T05:42:22;5.70;;;2.40;;
14994;SDS011;7593;49.006;8.372;2022-07-05T05:44:49;3.65;;;2.10;;
14994;SDS011;7593;49.006;8.372;2022-07-05T05:47:15;5.38;;;2.30;;
14994;SDS011;7593;49.006;8.372;2022-07-05T05:49:42;3.50;;;2.30;;
14994;SDS011;7593;49.006;8.372;2022-07-05T05:52:09;3.70;;;2.33;;
14994;SDS011;7593;49.006;8.372;2022-07-05T05:54:36;3.00;;;2.00;;
14994;SDS011;7593;49.006;8.372;2022-07-05T05:57:03;6.30;;;2.50;;
14994;SDS011;7593;49.006;8.372;2022-07-05T05:59:31;7.13;;;2.33;;
14994;SDS011;7593;49.006;8.372;2022-07-05T06:01:58;3.70;;;1.90;;
14994;SDS011;7593;49.006;8.372;2022-07-05T06:04:24;3.53;;;2.15;;
14994;SDS011;7593;49.006;8.372;2022-07-05T06:06:51;4.90;;;2.00;;
14994;SDS011;7593;49.006;8.372;2022-07-05T06:09:18;3.22;;;1.70;;
14994;SDS011;7593;49.006;8.372;2022-07-05T06:11:45;7.35;;;2.55;;
14994;SDS011;7593;49.006;8.372;2022-07-05T06:14:12;6.30;;;2.47;;
14994;SDS011;7593;49.006;8.372;2022-07-05T06:16:40;2.80;;;2.17;;
14994;SDS011;7593;49.006;8.372;2022-07-05T06:19:06;2.22;;;1.80;;
14994;SDS011;7593;49.006;8.372;2022-07-05T06:21:34;5.10;;;2.03;;
14994;SDS011;7593;49.006;8.372;2022-07-05T06:24:00;3.45;;;2.05;;
14994;SDS011;7593;49.006;8.372;2022-07-05T06:26:27;4.07;;;2.00;;
14994;SDS011;7593;49.006;8.372;2022-07-05T06:28:54;4.25;;;2.10;;
14994;SDS011;7593;49.006;8.372;2022-07-05T06:31:21;3.75;;;2.03;;
14994;SDS011;7593;49.006;8.372;2022-07-05T06:33:49;3.40;;;2.35;;
14994;SDS011;7593;49.006;8.372;2022-07-05T06:36:15;10.52;;;2.35;;
14994;SDS011;7593;49.006;8.372;2022-07-05T06:38:42;4.35;;;2.22;;
14994;SDS011;7593;49.006;8.372;2022-07-05T06:41:09;7.30;;;2.50;;
14994;SDS011;7593;49.006;8.372;2022-07-05T06:43:36;5.22;;;2.25;;
14994;SDS011;7593;49.006;8.372;2022-07-05T06:46:03;3.45;;;2.17;;
14994;SDS011;7593;49.006;8.372;2022-07-05T06:48:29;3.17;;;2.00;;
14994;SDS011;7593;49.006;8.372;2022-07-05T06:50:57;2.67;;;1.77;;
14994;SDS011;7593;49.006;8.372;2022-07-05T06:53:24;7.15;;;2.03;;
14994;SDS011;7593;49.006;8.372;2022-07-05T06:55:51;6.57;;;2.10;;
14994;SDS011;7593;49.006;8.372;2022-07-05T06:58:18;3.60;;;1.80;;
14994;SDS011;7593;49.006;8.372;2022-07-05T07:00:45;2.92;;;1.90;;
14994;SDS011;7593;49.006;8.372;2022-07-05T07:03:12;4.82;;;1.80;;
14994;SDS011;7593;49.006;8.372;2022-07-05T07:05:39;5.15;;;2.00;;
14994;SDS011;7593;49.006;8.372;2022-07-05T07:08:07;5.22;;;1.90;;
14994;SDS011;7593;49.006;8.372;2022-07-05T07:10:51;3.65;;;2.00;;
14994;SDS011;7593;49.006;8.372;2022-07-05T07:13:18;3.92;;;1.85;;
14994;SDS011;7593;49.006;8.372;2022-07-05T07:15:45;2.75;;;1.80;;
14994;SDS011;7593;49.006;8.372;2022-07-05T07:18:13;4.47;;;1.98;;
14994;SDS011;7593;49.006;8.372;2022-07-05T07:20:40;3.78;;;1.80;;
14994;SDS011;7593;49.006;8.372;2022-07-05T07:23:08;4.65;;;1.73;;
14994;SDS011;7593;49.006;8.372;2022-07-05T07:25:35;3.55;;;1.50;;
14994;SDS011;7593;49.006;8.372;2022-07-05T07:28:02;4.10;;;1.67;;
14994;SDS011;7593;49.006;8.372;2022-07-05T07:30:29;7.85;;;2.10;;
14994;SDS011;7593;49.006;8.372;2022-07-05T07:32:56;3.90;;;1.70;;
14994;SDS011;7593;49.006;8.372;2022-07-05T07:35:24;4.63;;;1.73;;
14994;SDS011;7593;49.006;8.372;2022-07-05T07:37:50;5.68;;;2.10;;
14994;SDS011;7593;49.006;8.372;2022-07-05T07:40:19;5.20;;;1.65;;
14994;SDS011;7593;49.006;8.372;2022-07-05T07:42:46;3.58;;;1.70;;
14994;SDS011;7593;49.006;8.372;2022-07-05T07:45:12;4.70;;;1.77;;
14994;SDS011;7593;49.006;8.372;2022-07-05T07:47:39;4.03;;;1.90;;
14994;SDS011;7593;49.006;8.372;2022-07-05T07:50:06;5.43;;;1.70;;
14994;SDS011;7593;49.006;8.372;2022-07-05T07:52:33;7.53;;;1.90;;
14994;SDS011;7593;49.006;8.372;2022-07-05T07:55:01;5.45;;;1.85;;
14994;SDS011;7593;49.006;8.372;2022-07-05T07:57:30;5.38;;;1.80;;
14994;SDS011;7593;49.006;8.372;2022-07-05T07:59:57;5.82;;;1.77;;
14994;SDS011;7593;49.006;8.372;2022-07-05T08:02:23;6.60;;;2.03;;
14994;SDS011;7593;49.006;8.372;2022-07-05T08:04:50;5.70;;;1.65;;
14994;SDS011;7593;49.006;8.372;2022-07-05T08:07:18;8.00;;;1.70;;
14994;SDS011;7593;49.006;8.372;2022-07-05T08:09:45;4.90;;;1.70;;
14994;SDS011;7593;49.006;8.372;2022-07-05T08:12:12;5.70;;;2.08;;
14994;SDS011;7593;49.006;8.372;2022-07-05T08:14:40;5.78;;;1.38;;
14994;SDS011;7593;49.006;8.372;2022-07-05T08:17:07;4.78;;;1.70;;
14994;SDS011;7593;49.006;8.372;2022-07-05T08:19:34;4.93;;;1.67;;
14994;SDS011;7593;49.006;8.372;2022-07-05T08:22:19;5.18;;;1.58;;
14994;SDS011;7593;49.006;8.372;2022-07-05T08:24:46;4.22;;;1.58;;
14994;SDS011;7593;49.006;8.372;2022-07-05T08:27:13;3.17;;;1.30;;
14994;SDS011;7593;49.006;8.372;2022-07-05T08:29:42;4.03;;;1.30;;
14994;SDS011;7593;49.006;8.372;2022-07-05T08:32:09;3.28;;;1.40;;
14994;SDS011;7593;49.006;8.372;2022-07-05T08:34:36;2.88;;;1.40;;
14994;SDS011;7593;49.006;8.372;2022-07-05T08:37:03;2.67;;;1.20;;
14994;SDS011;7593;49.006;8.372;2022-07-05T08:39:30;5.50;;;1.50;;
14994;SDS011;7593;49.006;8.372;2022-07-05T08:41:58;3.22;;;1.10;;
14994;SDS011;7593;49.006;8.372;2022-07-05T08:44:26;3.70;;;1.23;;
14994;SDS011;7593;49.006;8.372;2022-07-05T08:46:56;3.60;;;1.30;;
14994;SDS011;7593;49.006;8.372;2022-07-05T08:49:24;3.13;;;1.20;;
14994;SDS011;7593;49.006;8.372;2022-07-05T08:51:52;3.95;;;2.08;;
14994;SDS011;7593;49.006;8.372;2022-07-05T08:54:21;3.38;;;1.45;;
14994;SDS011;7593;49.006;8.372;2022-07-05T08:56:49;4.30;;;1.20;;
14994;SDS011;7593;49.006;8.372;2022-07-05T08:59:17;2.25;;;1.25;;
14994;SDS011;7593;49.006;8.372;2022-07-05T09:01:44;3.55;;;1.23;;
14994;SDS011;7593;49.006;8.372;2022-07-05T09:04:13;2.42;;;1.23;;
14994;SDS011;7593;49.006;8.372;2022-07-05T09:06:45;5.13;;;1.30;;
14994;SDS011;7593;49.006;8.372;2022-07-05T09:09:13;3.42;;;1.30;;
14994;SDS011;7593;49.006;8.372;2022-07-05T09:11:43;1.88;;;1.10;;
14994;SDS011;7593;49.006;8.372;2022-07-05T09:14:17;1.58;;;1.10;;
14994;SDS011;7593;49.006;8.372;2022-07-05T09:16:46;1.90;;;0.95;;
14994;SDS011;7593;49.006;8.372;2022-07-05T09:19:14;4.57;;;1.40;;
14994;SDS011;7593;49.006;8.372;2022-07-05T09:21:42;3.67;;;1.40;;
14994;SDS011;7593;49.006;8.372;2022-07-05T09:24:09;2.15;;;1.10;;
14994;SDS011;7593;49.006;8.372;2022-07-05T09:26:38;3.25;;;1.30;;
14994;SDS011;7593;49.006;8.372;2022-07-05T09:29:07;3.70;;;1.20;;
14994;SDS011;7593;49.006;8.372;2022-07-05T09:31:35;3.72;;;1.10;;
14994;SDS011;7593;49.006;8.372;2022-07-05T09:34:03;2.75;;;1.20;;
14994;SDS011;7593;49.006;8.372;2022-07-05T09:36:54;2.65;;;1.20;;
14994;SDS011;7593;49.006;8.372;2022-07-05T09:39:36;4.43;;;1.15;;
14994;SDS011;7593;49.006;8.372;2022-07-05T09:42:11;2.45;;;1.20;;
14994;SDS011;7593;49.006;8.372;2022-07-05T09:44:41;6.65;;;1.02;;
14994;SDS011;7593;49.006;8.372;2022-07-05T09:47:10;4.22;;;1.10;;
14994;SDS011;7593;49.006;8.372;2022-07-05T09:49:38;3.05;;;1.20;;
14994;SDS011;7593;49.006;8.372;2022-07-05T09:52:09;1.83;;;0.88;;
14994;SDS011;7593;49.006;8.372;2022-07-05T09:54:36;4.40;;;1.00;;
14994;SDS011;7593;49.006;8.372;2022-07-05T09:57:04;1.85;;;0.80;;
14994;SDS011;7593;49.006;8.372;2022-07-05T09:59:31;3.53;;;1.00;;
14994;SDS011;7593;49.006;8.372;2022-07-05T10:01:58;3.45;;;1.67;;
14994;SDS011;7593;49.006;8.372;2022-07-05T10:04:25;3.22;;;1.08;;
14994;SDS011;7593;49.006;8.372;2022-07-05T10:06:52;3.38;;;1.05;;
14994;SDS011;7593;49.006;8.372;2022-07-05T10:09:20;2.03;;;0.98;;
14994;SDS011;7593;49.006;8.372;2022-07-05T10:11:49;1.70;;;0.90;;
14994;SDS011;7593;49.006;8.372;2022-07-05T10:14:18;1.85;;;1.00;;
14994;SDS011;7593;49.006;8.372;2022-07-05T10:19:32;1.83;;;0.90;;
14994;SDS011;7593;49.006;8.372;2022-07-05T10:22:02;4.90;;;1.15;;
14994;SDS011;7593;49.006;8.372;2022-07-05T10:24:34;2.10;;;0.73;;
14994;SDS011;7593;49.006;8.372;2022-07-05T10:27:05;3.00;;;0.90;;
14994;SDS011;7593;49.006;8.372;2022-07-05T10:29:36;3.92;;;1.13;;
14994;SDS011;7593;49.006;8.372;2022-07-05T10:32:03;1.67;;;0.90;;
14994;SDS011;7593;49.006;8.372;2022-07-05T10:34:33;2.55;;;0.93;;
14994;SDS011;7593;49.006;8.372;2022-07-05T10:37:01;1.63;;;1.05;;
14994;SDS011;7593;49.006;8.372;2022-07-05T10:39:29;2.47;;;1.05;;
14994;SDS011;7593;49.006;8.372;2022-07-05T10:41:58;2.58;;;0.90;;
14994;SDS011;7593;49.006;8.372;2022-07-05T10:44:29;1.20;;;0.90;;
14994;SDS011;7593;49.006;8.372;2022-07-05T10:47:06;3.55;;;1.00;;
14994;SDS011;7593;49.006;8.372;2022-07-05T10:49:35;2.95;;;1.23;;
14994;SDS011;7593;49.006;8.372;2022-07-05T10:52:03;1.80;;;0.93;;
14994;SDS011;7593;49.006;8.372;2022-07-05T10:54:31;0.93;;;0.70;;
14994;SDS011;7593;49.006;8.372;2022-07-05T11:00:06;2.30;;;0.88;;
14994;SDS011;7593;49.006;8.372;2022-07-05T11:02:34;2.58;;;1.05;;
14994;SDS011;7593;49.006;8.372;2022-07-05T11:05:02;2.58;;;0.88;;
14994;SDS011;7593;49.006;8.372;2022-07-05T11:10:24;3.00;;;1.23;;
14994;SDS011;7593;49.006;8.372;2022-07-05T11:12:52;3.28;;;0.98;;
14994;SDS011;7593;49.006;8.372;2022-07-05T11:15:19;2.58;;;1.13;;
14994;SDS011;7593;49.006;8.372;2022-07-05T11:17:46;1.80;;;0.70;;
14994;SDS011;7593;49.006;8.372;2022-07-05T11:20:14;2.00;;;0.90;;
14994;SDS011;7593;49.006;8.372;2022-07-05T11:23:04;1.17;;;0.80;;
14994;SDS011;7593;49.006;8.372;2022-07-05T11:25:39;1.98;;;1.00;;
14994;SDS011;7593;49.006;8.372;2022-07-05T11:28:17;2.05;;;1.00;;
14994;SDS011;7593;49.006;8.372;2022-07-05T11:30:49;2.03;;;1.00;;
14994;SDS011;7593;49.006;8.372;2022-07-05T11:36:22;2.28;;;1.40;;
14994;SDS011;7593;49.006;8.372;2022-07-05T11:39:07;2.88;;;1.00;;
14994;SDS011;7593;49.006;8.372;2022-07-05T11:41:38;1.15;;;0.90;;
14994;SDS011;7593;49.006;8.372;2022-07-05T11:44:06;4.55;;;0.90;;
14994;SDS011;7593;49.006;8.372;2022-07-05T11:46:34;3.22;;;0.88;;
14994;SDS011;7593;49.006;8.372;2022-07-05T11:49:00;3.38;;;1.10;;
14994;SDS011;7593;49.006;8.372;2022-07-05T11:51:27;2.20;;;0.90;;
14994;SDS011;7593;49.006;8.372;2022-07-05T11:53:54;0.93;;;0.70;;
14994;SDS011;7593;49.006;8.372;2022-07-05T11:56:22;3.33;;;0.93;;
14994;SDS011;7593;49.006;8.372;2022-07-05T11:58:49;1.85;;;0.90;;
14994;SDS011;7593;49.006;8.372;2022-07-05T12:01:17;1.88;;;1.00;;
14994;SDS011;7593;49.006;8.372;2022-07-05T12:03:52;1.55;;;0.90;;
14994;SDS011;7593;49.006;8.372;2022-07-05T12:06:20;2.90;;;0.98;;
14994;SDS011;7593;49.006;8.372;2022-07-05T12:09:00;1.65;;;0.85;;
14994;SDS011;7593;49.006;8.372;2022-07-05T12:11:28;2.10;;;0.90;;
14994;SDS011;7593;49.006;8.372;2022-07-05T12:14:19;1.30;;;0.80;;
14994;SDS011;7593;49.006;8.372;2022-07-05T12:16:48;3.50;;;0.95;;
14994;SDS011;7593;49.006;8.372;2022-07-05T12:19:23;1.67;;;0.70;;
14994;SDS011;7593;49.006;8.372;2022-07-05T12:21:51;1.63;;;0.88;;
14994;SDS011;7593;49.006;8.372;2022-07-05T12:24:19;0.90;;;0.75;;
14994;SDS011;7593;49.006;8.372;2022-07-05T12:26:47;3.92;;;1.10;;
14994;SDS011;7593;49.006;8.372;2022-07-05T12:29:16;2.65;;;0.77;;
14994;SDS011;7593;49.006;8.372;2022-07-05T12:31:59;4.00;;;1.13;;
14994;SDS011;7593;49.006;8.372;2022-07-05T12:34:26;2.88;;;0.93;;
14994;SDS011;7593;49.006;8.372;2022-07-05T12:36:54;1.95;;;0.70;;
14994;SDS011;7593;49.006;8.372;2022-07-05T12:39:21;3.60;;;1.02;;
14994;SDS011;7593;49.006;8.372;2022-07-05T12:41:48;1.48;;;0.95;;
14994;SDS011;7593;49.006;8.372;2022-07-05T12:44:17;3.63;;;1.00;;
14994;SDS011;7593;49.006;8.372;2022-07-05T12:46:46;2.42;;;1.00;;
14994;SDS011;7593;49.006;8.372;2022-07-05T12:49:15;2.67;;;0.95;;
14994;SDS011;7593;49.006;8.372;2022-07-05T12:51:42;1.00;;;0.70;;
14994;SDS011;7593;49.006;8.372;2022-07-05T12:54:17;2.17;;;0.90;;
14994;SDS011;7593;49.006;8.372;2022-07-05T12:57:02;2.63;;;0.73;;
14994;SDS011;7593;49.006;8.372;2022-07-05T12:59:56;1.83;;;0.90;;
14994;SDS011;7593;49.006;8.372;2022-07-05T13:02:33;1.92;;;0.90;;
14994;SDS011;7593;49.006;8.372;2022-07-05T13:05:06;1.70;;;0.90;;
14994;SDS011;7593;49.006;8.372;2022-07-05T13:07:40;1.75;;;0.90;;
14994;SDS011;7593;49.006;8.372;2022-07-05T13:10:14;1.52;;;0.88;;
14994;SDS011;7593;49.006;8.372;2022-07-05T13:12:42;1.50;;;0.70;;
14994;SDS011;7593;49.006;8.372;2022-07-05T13:15:09;2.47;;;0.93;;
14994;SDS011;7593;49.006;8.372;2022-07-05T13:17:36;1.10;;;0.80;;
14994;SDS011;7593;49.006;8.372;2022-07-05T13:20:03;2.30;;;0.93;;
14994;SDS011;7593;49.006;8.372;2022-07-05T13:22:33;5.65;;;1.15;;
14994;SDS011;7593;49.006;8.372;2022-07-05T13:24:59;1.65;;;1.02;;
14994;SDS011;7593;49.006;8.372;2022-07-05T13:27:27;3.20;;;0.90;;
14994;SDS011;7593;49.006;8.372;2022-07-05T13:29:54;2.10;;;1.00;;
14994;SDS011;7593;49.006;8.372;2022-07-05T13:32:21;2.45;;;0.90;;
14994;SDS011;7593;49.006;8.372;2022-07-05T13:34:48;1.30;;;0.95;;
14994;SDS011;7593;49.006;8.372;2022-07-05T13:37:16;1.33;;;0.85;;
14994;SDS011;7593;49.006;8.372;2022-07-05T13:39:43;2.60;;;0.95;;
14994;SDS011;7593;49.006;8.372;2022-07-05T13:42:10;3.42;;;1.02;;
14994;SDS011;7593;49.006;8.372;2022-07-05T13:44:37;3.35;;;0.80;;
14994;SDS011;7593;49.006;8.372;2022-07-05T13:47:04;4.35;;;1.00;;
14994;SDS011;7593;49.006;8.372;2022-07-05T13:49:32;2.28;;;0.90;;
14994;SDS011;7593;49.006;8.372;2022-07-05T13:51:59;1.98;;;1.08;;
14994;SDS011;7593;49.006;8.372;2022-07-05T13:54:28;1.83;;;0.90;;
14994;SDS011;7593;49.006;8.372;2022-07-05T13:56:55;2.22;;;1.00;;
14994;SDS011;7593;49.006;8.372;2022-07-05T13:59:22;2.45;;;1.00;;
14994;SDS011;7593;49.006;8.372;2022-07-05T14:01:49;1.83;;;1.00;;
14994;SDS011;7593;49.006;8.372;2022-07-05T14:04:15;1.10;;;0.80;;
14994;SDS011;7593;49.006;8.372;2022-07-05T14:06:42;2.30;;;1.30;;
14994;SDS011;7593;49.006;8.372;2022-07-05T14:09:11;2.00;;;1.08;;
14994;SDS011;7593;49.006;8.372;2022-07-05T14:11:39;1.80;;;1.33;;
14994;SDS011;7593;49.006;8.372;2022-07-05T14:14:06;2.65;;;0.82;;
14994;SDS011;7593;49.006;8.372;2022-07-05T14:16:32;1.48;;;0.90;;
14994;SDS011;7593;49.006;8.372;2022-07-05T14:18:59;1.70;;;1.00;;
14994;SDS011;7593;49.006;8.372;2022-07-05T14:21:26;5.38;;;1.10;;
14994;SDS011;7593;49.006;8.372;2022-07-05T14:23:53;1.92;;;1.00;;
14994;SDS011;7593;49.006;8.372;2022-07-05T14:26:20;2.67;;;1.00;;
14994;SDS011;7593;49.006;8.372;2022-07-05T14:28:48;3.05;;;1.02;;
14994;SDS011;7593;49.006;8.372;2022-07-05T14:31:15;1.80;;;1.00;;
14994;SDS011;7593;49.006;8.372;2022-07-05T14:33:42;2.22;;;0.93;;
14994;SDS011;7593;49.006;8.372;2022-07-05T14:36:09;2.33;;;1.00;;
14994;SDS011;7593;49.006;8.372;2022-07-05T14:38:36;2.85;;;1.00;;
14994;SDS011;7593;49.006;8.372;2022-07-05T14:41:02;1.42;;;0.90;;
14994;SDS011;7593;49.006;8.372;2022-07-05T14:43:29;1.65;;;1.00;;
14994;SDS011;7593;49.006;8.372;2022-07-05T14:45:57;1.50;;;1.00;;
14994;SDS011;7593;49.006;8.372;2022-07-05T14:48:24;1.67;;;0.90;;
14994;SDS011;7593;49.006;8.372;2022-07-05T14:50:51;1.77;;;1.00;;
14994;SDS011;7593;49.006;8.372;2022-07-05T14:53:18;1.20;;;0.90;;
14994;SDS011;7593;49.006;8.372;2022-07-05T14:55:45;1.83;;;1.00;;
14994;SDS011;7593;49.006;8.372;2022-07-05T14:58:14;1.10;;;0.80;;
14994;SDS011;7593;49.006;8.372;2022-07-05T15:00:41;2.03;;;1.15;;
14994;SDS011;7593;49.006;8.372;2022-07-05T15:03:09;1.80;;;0.80;;
14994;SDS011;7593;49.006;8.372;2022-07-05T15:05:36;1.48;;;0.90;;
14994;SDS011;7593;49.006;8.372;2022-07-05T15:08:03;2.15;;;0.85;;
14994;SDS011;7593;49.006;8.372;2022-07-05T15:10:30;2.10;;;1.10;;
14994;SDS011;7593;49.006;8.372;2022-07-05T15:12:57;2.53;;;1.10;;
14994;SDS011;7593;49.006;8.372;2022-07-05T15:15:23;3.13;;;1.15;;
14994;SDS011;7593;49.006;8.372;2022-07-05T15:17:50;1.55;;;1.10;;